Aviation Digital Data Service (ADDS)

Output produced by METARs form (0335 UTC 27 March 2015)
found at http://aviationweather.gov/adds/metars/
 
KPQI 262331Z 2700/2724 25009G16KT 6SM -RA BKN025 OVC050 
     FM270200 24005KT 6SM -RASN BR OVC015 
     FM270600 29004KT P6SM -SHSN OVC025 
     FM271200 33008KT P6SM BKN035 AMD LTD TO CLD VIS AND WIND